sensor_id;sensor_type;location;lat;lon;timestamp;P1;durP1;ratioP1;P2;durP2;ratioP2
76597;SDS011;65486;53.144;18.134;2023-12-28T00:00:03;43.90;;;18.50;;
76597;SDS011;65486;53.144;18.134;2023-12-28T00:02:33;45.20;;;20.10;;
76597;SDS011;65486;53.144;18.134;2023-12-28T00:05:00;40.10;;;18.30;;
76597;SDS011;65486;53.144;18.134;2023-12-28T00:07:30;35.30;;;15.50;;
76597;SDS011;65486;53.144;18.134;2023-12-28T00:09:57;36.90;;;14.00;;
76597;SDS011;65486;53.144;18.134;2023-12-28T00:12:25;42.30;;;18.40;;
76597;SDS011;65486;53.144;18.134;2023-12-28T00:14:54;24.30;;;11.30;;
76597;SDS011;65486;53.144;18.134;2023-12-28T00:17:22;27.30;;;12.30;;
76597;SDS011;65486;53.144;18.134;2023-12-28T00:19:50;40.00;;;16.30;;
76597;SDS011;65486;53.144;18.134;2023-12-28T00:22:17;43.40;;;19.10;;
76597;SDS011;65486;53.144;18.134;2023-12-28T00:24:45;25.40;;;10.90;;
76597;SDS011;65486;53.144;18.134;2023-12-28T00:27:12;28.60;;;12.40;;
76597;SDS011;65486;53.144;18.134;2023-12-28T00:29:41;32.80;;;13.50;;
76597;SDS011;65486;53.144;18.134;2023-12-28T00:32:09;31.60;;;12.50;;
76597;SDS011;65486;53.144;18.134;2023-12-28T00:34:37;39.30;;;15.00;;
76597;SDS011;65486;53.144;18.134;2023-12-28T00:37:06;29.90;;;12.50;;
76597;SDS011;65486;53.144;18.134;2023-12-28T00:39:34;39.70;;;14.70;;
76597;SDS011;65486;53.144;18.134;2023-12-28T00:42:03;32.20;;;12.30;;
76597;SDS011;65486;53.144;18.134;2023-12-28T00:44:31;27.60;;;9.60;;
76597;SDS011;65486;53.144;18.134;2023-12-28T00:46:59;28.60;;;9.90;;
76597;SDS011;65486;53.144;18.134;2023-12-28T00:49:28;34.10;;;14.00;;
76597;SDS011;65486;53.144;18.134;2023-12-28T00:51:58;28.40;;;11.40;;
76597;SDS011;65486;53.144;18.134;2023-12-28T00:54:28;32.60;;;14.30;;
76597;SDS011;65486;53.144;18.134;2023-12-28T00:56:55;29.10;;;12.40;;
76597;SDS011;65486;53.144;18.134;2023-12-28T00:59:22;34.30;;;15.00;;
76597;SDS011;65486;53.144;18.134;2023-12-28T01:01:49;38.60;;;15.60;;
76597;SDS011;65486;53.144;18.134;2023-12-28T01:04:18;31.40;;;12.00;;
76597;SDS011;65486;53.144;18.134;2023-12-28T01:06:51;30.70;;;12.70;;
76597;SDS011;65486;53.144;18.134;2023-12-28T01:09:21;39.00;;;18.10;;
76597;SDS011;65486;53.144;18.134;2023-12-28T01:11:49;29.30;;;11.90;;
76597;SDS011;65486;53.144;18.134;2023-12-28T01:14:17;30.20;;;12.70;;
76597;SDS011;65486;53.144;18.134;2023-12-28T01:16:48;43.30;;;16.50;;
76597;SDS011;65486;53.144;18.134;2023-12-28T01:19:15;32.20;;;14.30;;
76597;SDS011;65486;53.144;18.134;2023-12-28T01:21:46;37.00;;;15.00;;
76597;SDS011;65486;53.144;18.134;2023-12-28T01:24:17;25.40;;;9.20;;
76597;SDS011;65486;53.144;18.134;2023-12-28T01:26:47;30.90;;;12.30;;
76597;SDS011;65486;53.144;18.134;2023-12-28T01:29:16;35.50;;;13.60;;
76597;SDS011;65486;53.144;18.134;2023-12-28T01:31:43;31.60;;;11.80;;
76597;SDS011;65486;53.144;18.134;2023-12-28T01:34:17;24.20;;;9.30;;
76597;SDS011;65486;53.144;18.134;2023-12-28T01:36:45;43.60;;;16.70;;
76597;SDS011;65486;53.144;18.134;2023-12-28T01:39:13;45.00;;;16.70;;
76597;SDS011;65486;53.144;18.134;2023-12-28T01:41:43;36.10;;;13.70;;
76597;SDS011;65486;53.144;18.134;2023-12-28T01:44:10;27.30;;;10.70;;
76597;SDS011;65486;53.144;18.134;2023-12-28T01:46:37;25.20;;;10.30;;
76597;SDS011;65486;53.144;18.134;2023-12-28T01:49:07;19.20;;;7.80;;
76597;SDS011;65486;53.144;18.134;2023-12-28T01:51:39;24.50;;;9.10;;
76597;SDS011;65486;53.144;18.134;2023-12-28T01:54:06;26.50;;;8.60;;
76597;SDS011;65486;53.144;18.134;2023-12-28T01:56:36;32.70;;;13.20;;
76597;SDS011;65486;53.144;18.134;2023-12-28T01:59:05;29.90;;;11.70;;
76597;SDS011;65486;53.144;18.134;2023-12-28T02:01:33;18.60;;;7.90;;
76597;SDS011;65486;53.144;18.134;2023-12-28T02:04:01;30.20;;;11.00;;
76597;SDS011;65486;53.144;18.134;2023-12-28T02:06:31;28.30;;;10.60;;
76597;SDS011;65486;53.144;18.134;2023-12-28T02:08:59;28.20;;;11.40;;
76597;SDS011;65486;53.144;18.134;2023-12-28T02:11:29;25.20;;;10.00;;
76597;SDS011;65486;53.144;18.134;2023-12-28T02:13:59;36.50;;;12.90;;
76597;SDS011;65486;53.144;18.134;2023-12-28T02:16:36;33.80;;;13.90;;
76597;SDS011;65486;53.144;18.134;2023-12-28T02:19:20;31.40;;;12.10;;
76597;SDS011;65486;53.144;18.134;2023-12-28T02:22:03;35.80;;;14.40;;
76597;SDS011;65486;53.144;18.134;2023-12-28T02:24:31;21.40;;;8.90;;
76597;SDS011;65486;53.144;18.134;2023-12-28T02:26:58;32.00;;;12.40;;
76597;SDS011;65486;53.144;18.134;2023-12-28T02:29:25;41.90;;;16.60;;
76597;SDS011;65486;53.144;18.134;2023-12-28T02:31:53;30.30;;;11.10;;
76597;SDS011;65486;53.144;18.134;2023-12-28T02:34:34;33.00;;;14.60;;
76597;SDS011;65486;53.144;18.134;2023-12-28T02:37:05;24.90;;;9.60;;
76597;SDS011;65486;53.144;18.134;2023-12-28T02:39:35;18.70;;;7.00;;
76597;SDS011;65486;53.144;18.134;2023-12-28T02:42:06;29.00;;;11.00;;
76597;SDS011;65486;53.144;18.134;2023-12-28T02:44:34;32.10;;;11.60;;
76597;SDS011;65486;53.144;18.134;2023-12-28T02:47:06;27.90;;;10.70;;
76597;SDS011;65486;53.144;18.134;2023-12-28T02:49:35;20.30;;;8.60;;
76597;SDS011;65486;53.144;18.134;2023-12-28T02:52:02;25.40;;;9.60;;
76597;SDS011;65486;53.144;18.134;2023-12-28T02:54:29;24.50;;;10.90;;
76597;SDS011;65486;53.144;18.134;2023-12-28T02:56:56;24.70;;;9.50;;
76597;SDS011;65486;53.144;18.134;2023-12-28T02:59:23;24.80;;;9.90;;
76597;SDS011;65486;53.144;18.134;2023-12-28T03:01:52;21.60;;;7.70;;
76597;SDS011;65486;53.144;18.134;2023-12-28T03:04:20;28.50;;;10.40;;
76597;SDS011;65486;53.144;18.134;2023-12-28T03:06:49;25.80;;;11.20;;
76597;SDS011;65486;53.144;18.134;2023-12-28T03:09:16;20.10;;;7.30;;
76597;SDS011;65486;53.144;18.134;2023-12-28T03:11:45;19.50;;;5.20;;
76597;SDS011;65486;53.144;18.134;2023-12-28T03:14:12;25.30;;;10.40;;
76597;SDS011;65486;53.144;18.134;2023-12-28T03:16:39;12.50;;;4.50;;
76597;SDS011;65486;53.144;18.134;2023-12-28T03:19:09;21.70;;;7.70;;
76597;SDS011;65486;53.144;18.134;2023-12-28T03:21:40;21.60;;;7.00;;
76597;SDS011;65486;53.144;18.134;2023-12-28T03:24:08;17.60;;;6.90;;
76597;SDS011;65486;53.144;18.134;2023-12-28T03:26:40;24.00;;;7.60;;
76597;SDS011;65486;53.144;18.134;2023-12-28T03:29:07;19.80;;;6.80;;
76597;SDS011;65486;53.144;18.134;2023-12-28T03:31:38;20.70;;;7.70;;
76597;SDS011;65486;53.144;18.134;2023-12-28T03:34:08;25.20;;;8.00;;
76597;SDS011;65486;53.144;18.134;2023-12-28T03:36:37;23.20;;;8.50;;
76597;SDS011;65486;53.144;18.134;2023-12-28T03:39:04;21.80;;;6.60;;
76597;SDS011;65486;53.144;18.134;2023-12-28T03:41:32;23.10;;;8.30;;
76597;SDS011;65486;53.144;18.134;2023-12-28T03:44:00;19.90;;;7.80;;
76597;SDS011;65486;53.144;18.134;2023-12-28T03:46:28;18.80;;;6.30;;
76597;SDS011;65486;53.144;18.134;2023-12-28T03:48:55;25.90;;;8.30;;
76597;SDS011;65486;53.144;18.134;2023-12-28T03:51:22;20.80;;;7.50;;
76597;SDS011;65486;53.144;18.134;2023-12-28T03:53:49;19.10;;;8.40;;
76597;SDS011;65486;53.144;18.134;2023-12-28T03:56:22;16.40;;;6.00;;
76597;SDS011;65486;53.144;18.134;2023-12-28T03:58:59;15.00;;;6.00;;
76597;SDS011;65486;53.144;18.134;2023-12-28T04:01:26;21.90;;;8.40;;
76597;SDS011;65486;53.144;18.134;2023-12-28T04:03:53;22.00;;;8.50;;
76597;SDS011;65486;53.144;18.134;2023-12-28T04:06:20;23.20;;;9.10;;
76597;SDS011;65486;53.144;18.134;2023-12-28T04:08:47;14.50;;;5.70;;
76597;SDS011;65486;53.144;18.134;2023-12-28T04:11:14;25.10;;;8.50;;
76597;SDS011;65486;53.144;18.134;2023-12-28T04:13:43;23.00;;;7.50;;
76597;SDS011;65486;53.144;18.134;2023-12-28T04:16:12;21.80;;;7.40;;
76597;SDS011;65486;53.144;18.134;2023-12-28T04:18:44;23.90;;;8.80;;
76597;SDS011;65486;53.144;18.134;2023-12-28T04:21:12;24.30;;;9.30;;
76597;SDS011;65486;53.144;18.134;2023-12-28T04:23:41;21.20;;;6.70;;
76597;SDS011;65486;53.144;18.134;2023-12-28T04:26:09;23.00;;;7.90;;
76597;SDS011;65486;53.144;18.134;2023-12-28T04:28:39;21.80;;;8.50;;
76597;SDS011;65486;53.144;18.134;2023-12-28T04:31:08;19.60;;;5.90;;
76597;SDS011;65486;53.144;18.134;2023-12-28T04:33:35;22.80;;;8.40;;
76597;SDS011;65486;53.144;18.134;2023-12-28T04:36:04;19.80;;;8.20;;
76597;SDS011;65486;53.144;18.134;2023-12-28T04:38:34;21.50;;;8.00;;
76597;SDS011;65486;53.144;18.134;2023-12-28T04:41:01;25.50;;;9.50;;
76597;SDS011;65486;53.144;18.134;2023-12-28T04:43:29;21.50;;;8.80;;
76597;SDS011;65486;53.144;18.134;2023-12-28T04:45:56;25.90;;;9.90;;
76597;SDS011;65486;53.144;18.134;2023-12-28T04:48:23;24.60;;;9.10;;
76597;SDS011;65486;53.144;18.134;2023-12-28T04:50:54;25.80;;;10.40;;
76597;SDS011;65486;53.144;18.134;2023-12-28T04:53:21;19.60;;;8.30;;
76597;SDS011;65486;53.144;18.134;2023-12-28T04:55:50;19.20;;;7.50;;
76597;SDS011;65486;53.144;18.134;2023-12-28T04:58:17;20.70;;;7.70;;
76597;SDS011;65486;53.144;18.134;2023-12-28T05:00:46;20.90;;;8.50;;
76597;SDS011;65486;53.144;18.134;2023-12-28T05:03:13;20.40;;;7.60;;
76597;SDS011;65486;53.144;18.134;2023-12-28T05:05:46;22.40;;;8.10;;
76597;SDS011;65486;53.144;18.134;2023-12-28T05:08:15;25.50;;;10.30;;
76597;SDS011;65486;53.144;18.134;2023-12-28T05:10:44;19.60;;;7.90;;
76597;SDS011;65486;53.144;18.134;2023-12-28T05:13:11;19.90;;;7.90;;
76597;SDS011;65486;53.144;18.134;2023-12-28T05:15:39;17.60;;;7.00;;
76597;SDS011;65486;53.144;18.134;2023-12-28T05:18:06;23.30;;;9.20;;
76597;SDS011;65486;53.144;18.134;2023-12-28T05:20:37;21.40;;;7.70;;
76597;SDS011;65486;53.144;18.134;2023-12-28T05:23:06;23.30;;;9.60;;
76597;SDS011;65486;53.144;18.134;2023-12-28T05:25:33;18.80;;;7.90;;
76597;SDS011;65486;53.144;18.134;2023-12-28T05:28:04;21.00;;;8.60;;
76597;SDS011;65486;53.144;18.134;2023-12-28T05:30:31;25.80;;;10.10;;
76597;SDS011;65486;53.144;18.134;2023-12-28T05:32:58;20.90;;;8.50;;
76597;SDS011;65486;53.144;18.134;2023-12-28T05:35:26;23.10;;;8.60;;
76597;SDS011;65486;53.144;18.134;2023-12-28T05:37:53;21.10;;;8.20;;
76597;SDS011;65486;53.144;18.134;2023-12-28T05:40:35;18.20;;;7.90;;
76597;SDS011;65486;53.144;18.134;2023-12-28T05:43:02;18.70;;;8.10;;
76597;SDS011;65486;53.144;18.134;2023-12-28T05:45:30;15.20;;;6.30;;
76597;SDS011;65486;53.144;18.134;2023-12-28T05:47:59;24.40;;;10.00;;
76597;SDS011;65486;53.144;18.134;2023-12-28T05:50:26;24.80;;;9.80;;
76597;SDS011;65486;53.144;18.134;2023-12-28T05:52:58;21.00;;;8.70;;
76597;SDS011;65486;53.144;18.134;2023-12-28T05:55:25;19.80;;;8.30;;
76597;SDS011;65486;53.144;18.134;2023-12-28T05:57:52;18.10;;;7.70;;
76597;SDS011;65486;53.144;18.134;2023-12-28T06:00:19;22.60;;;7.90;;
76597;SDS011;65486;53.144;18.134;2023-12-28T06:02:48;13.50;;;6.10;;
76597;SDS011;65486;53.144;18.134;2023-12-28T06:05:18;19.40;;;8.10;;
76597;SDS011;65486;53.144;18.134;2023-12-28T06:07:47;20.00;;;9.20;;
76597;SDS011;65486;53.144;18.134;2023-12-28T06:10:14;12.60;;;5.60;;
76597;SDS011;65486;53.144;18.134;2023-12-28T06:12:41;18.40;;;7.60;;
76597;SDS011;65486;53.144;18.134;2023-12-28T06:15:08;21.60;;;8.40;;
76597;SDS011;65486;53.144;18.134;2023-12-28T06:17:36;25.00;;;10.30;;
76597;SDS011;65486;53.144;18.134;2023-12-28T06:20:05;16.40;;;7.70;;
76597;SDS011;65486;53.144;18.134;2023-12-28T06:22:33;18.90;;;8.10;;
76597;SDS011;65486;53.144;18.134;2023-12-28T06:25:06;21.80;;;9.40;;
76597;SDS011;65486;53.144;18.134;2023-12-28T06:27:33;15.70;;;7.10;;
76597;SDS011;65486;53.144;18.134;2023-12-28T06:30:00;21.50;;;9.50;;
76597;SDS011;65486;53.144;18.134;2023-12-28T06:32:27;20.70;;;8.00;;
76597;SDS011;65486;53.144;18.134;2023-12-28T06:34:54;19.50;;;7.30;;
76597;SDS011;65486;53.144;18.134;2023-12-28T06:37:21;33.00;;;10.80;;
76597;SDS011;65486;53.144;18.134;2023-12-28T06:39:48;20.80;;;8.60;;
76597;SDS011;65486;53.144;18.134;2023-12-28T06:42:15;28.10;;;10.70;;
76597;SDS011;65486;53.144;18.134;2023-12-28T06:44:42;20.40;;;8.30;;
76597;SDS011;65486;53.144;18.134;2023-12-28T06:47:09;22.40;;;9.70;;
76597;SDS011;65486;53.144;18.134;2023-12-28T06:49:39;18.50;;;8.60;;
76597;SDS011;65486;53.144;18.134;2023-12-28T06:52:14;28.00;;;11.40;;
76597;SDS011;65486;53.144;18.134;2023-12-28T06:54:41;26.20;;;10.00;;
76597;SDS011;65486;53.144;18.134;2023-12-28T06:57:08;22.80;;;8.90;;
76597;SDS011;65486;53.144;18.134;2023-12-28T06:59:35;25.00;;;10.00;;
76597;SDS011;65486;53.144;18.134;2023-12-28T07:02:03;22.40;;;9.80;;
76597;SDS011;65486;53.144;18.134;2023-12-28T07:04:33;32.60;;;12.80;;
76597;SDS011;65486;53.144;18.134;2023-12-28T07:07:00;33.20;;;12.40;;
76597;SDS011;65486;53.144;18.134;2023-12-28T07:09:28;28.50;;;12.20;;
76597;SDS011;65486;53.144;18.134;2023-12-28T07:11:57;26.50;;;11.30;;
76597;SDS011;65486;53.144;18.134;2023-12-28T07:14:24;29.10;;;11.30;;
76597;SDS011;65486;53.144;18.134;2023-12-28T07:16:51;26.90;;;12.20;;
76597;SDS011;65486;53.144;18.134;2023-12-28T07:19:19;20.20;;;9.20;;
76597;SDS011;65486;53.144;18.134;2023-12-28T07:21:47;14.80;;;6.70;;
76597;SDS011;65486;53.144;18.134;2023-12-28T07:24:15;26.80;;;10.80;;
76597;SDS011;65486;53.144;18.134;2023-12-28T07:26:43;27.30;;;11.30;;
76597;SDS011;65486;53.144;18.134;2023-12-28T07:29:11;24.90;;;11.20;;
76597;SDS011;65486;53.144;18.134;2023-12-28T07:31:39;24.40;;;10.90;;
76597;SDS011;65486;53.144;18.134;2023-12-28T07:34:06;20.50;;;8.60;;
76597;SDS011;65486;53.144;18.134;2023-12-28T07:36:33;20.20;;;7.80;;
76597;SDS011;65486;53.144;18.134;2023-12-28T07:39:02;18.20;;;8.60;;
76597;SDS011;65486;53.144;18.134;2023-12-28T07:41:30;21.30;;;9.80;;
76597;SDS011;65486;53.144;18.134;2023-12-28T07:43:57;22.30;;;9.60;;
76597;SDS011;65486;53.144;18.134;2023-12-28T07:46:25;16.10;;;6.70;;
76597;SDS011;65486;53.144;18.134;2023-12-28T07:48:53;18.30;;;8.50;;
76597;SDS011;65486;53.144;18.134;2023-12-28T07:51:20;16.30;;;7.60;;
76597;SDS011;65486;53.144;18.134;2023-12-28T07:53:50;22.00;;;8.30;;
76597;SDS011;65486;53.144;18.134;2023-12-28T07:56:17;18.40;;;7.60;;
76597;SDS011;65486;53.144;18.134;2023-12-28T07:58:49;15.70;;;7.50;;
76597;SDS011;65486;53.144;18.134;2023-12-28T08:01:17;21.00;;;7.20;;
76597;SDS011;65486;53.144;18.134;2023-12-28T08:03:46;12.40;;;5.80;;
76597;SDS011;65486;53.144;18.134;2023-12-28T08:06:13;16.90;;;7.50;;
76597;SDS011;65486;53.144;18.134;2023-12-28T08:08:40;14.80;;;7.70;;
76597;SDS011;65486;53.144;18.134;2023-12-28T08:11:07;12.00;;;5.50;;
76597;SDS011;65486;53.144;18.134;2023-12-28T08:13:34;13.90;;;5.50;;
76597;SDS011;65486;53.144;18.134;2023-12-28T08:16:01;11.80;;;5.20;;
76597;SDS011;65486;53.144;18.134;2023-12-28T08:18:29;14.70;;;5.90;;
76597;SDS011;65486;53.144;18.134;2023-12-28T08:20:57;15.80;;;6.70;;
76597;SDS011;65486;53.144;18.134;2023-12-28T08:23:24;15.80;;;6.10;;
76597;SDS011;65486;53.144;18.134;2023-12-28T08:25:51;13.30;;;6.40;;
76597;SDS011;65486;53.144;18.134;2023-12-28T08:28:18;10.20;;;4.60;;
76597;SDS011;65486;53.144;18.134;2023-12-28T08:30:45;13.80;;;5.60;;
76597;SDS011;65486;53.144;18.134;2023-12-28T08:33:14;15.90;;;6.50;;
76597;SDS011;65486;53.144;18.134;2023-12-28T08:35:41;14.30;;;6.70;;
76597;SDS011;65486;53.144;18.134;2023-12-28T08:38:08;11.60;;;5.00;;
76597;SDS011;65486;53.144;18.134;2023-12-28T08:40:37;12.60;;;6.10;;
76597;SDS011;65486;53.144;18.134;2023-12-28T08:43:04;13.00;;;5.90;;
76597;SDS011;65486;53.144;18.134;2023-12-28T08:45:31;10.60;;;5.70;;
76597;SDS011;65486;53.144;18.134;2023-12-28T08:47:59;15.10;;;6.70;;
76597;SDS011;65486;53.144;18.134;2023-12-28T08:50:26;17.30;;;7.20;;
76597;SDS011;65486;53.144;18.134;2023-12-28T08:52:53;17.20;;;7.60;;
76597;SDS011;65486;53.144;18.134;2023-12-28T08:55:20;10.00;;;4.60;;
76597;SDS011;65486;53.144;18.134;2023-12-28T08:57:50;14.30;;;6.60;;
76597;SDS011;65486;53.144;18.134;2023-12-28T09:00:17;12.50;;;5.50;;
76597;SDS011;65486;53.144;18.134;2023-12-28T09:02:44;14.50;;;6.90;;
76597;SDS011;65486;53.144;18.134;2023-12-28T09:05:12;13.40;;;6.10;;
76597;SDS011;65486;53.144;18.134;2023-12-28T09:07:41;10.10;;;4.10;;
76597;SDS011;65486;53.144;18.134;2023-12-28T09:10:10;13.20;;;5.30;;
76597;SDS011;65486;53.144;18.134;2023-12-28T09:12:39;9.40;;;4.20;;
76597;SDS011;65486;53.144;18.134;2023-12-28T09:15:12;11.00;;;5.10;;
76597;SDS011;65486;53.144;18.134;2023-12-28T09:17:39;9.30;;;4.40;;
76597;SDS011;65486;53.144;18.134;2023-12-28T09:20:07;11.10;;;4.90;;
76597;SDS011;65486;53.144;18.134;2023-12-28T09:22:38;11.90;;;6.00;;
76597;SDS011;65486;53.144;18.134;2023-12-28T09:25:06;11.00;;;4.60;;
76597;SDS011;65486;53.144;18.134;2023-12-28T09:27:37;10.90;;;4.90;;
76597;SDS011;65486;53.144;18.134;2023-12-28T09:30:06;13.20;;;5.10;;
76597;SDS011;65486;53.144;18.134;2023-12-28T09:32:35;12.30;;;4.80;;
76597;SDS011;65486;53.144;18.134;2023-12-28T09:35:04;10.80;;;4.90;;
76597;SDS011;65486;53.144;18.134;2023-12-28T09:37:32;9.10;;;4.50;;
76597;SDS011;65486;53.144;18.134;2023-12-28T09:39:59;10.50;;;5.60;;
76597;SDS011;65486;53.144;18.134;2023-12-28T09:42:28;12.10;;;5.80;;
76597;SDS011;65486;53.144;18.134;2023-12-28T09:44:59;11.60;;;5.80;;
76597;SDS011;65486;53.144;18.134;2023-12-28T09:47:27;12.00;;;5.80;;
76597;SDS011;65486;53.144;18.134;2023-12-28T09:49:54;8.80;;;4.10;;
76597;SDS011;65486;53.144;18.134;2023-12-28T09:52:21;15.40;;;6.10;;
76597;SDS011;65486;53.144;18.134;2023-12-28T09:54:49;11.70;;;5.10;;
76597;SDS011;65486;53.144;18.134;2023-12-28T09:57:16;12.10;;;5.80;;
76597;SDS011;65486;53.144;18.134;2023-12-28T09:59:43;10.30;;;5.40;;
76597;SDS011;65486;53.144;18.134;2023-12-28T10:02:11;9.10;;;4.10;;
76597;SDS011;65486;53.144;18.134;2023-12-28T10:04:39;8.50;;;4.60;;
76597;SDS011;65486;53.144;18.134;2023-12-28T10:07:08;15.00;;;6.10;;
76597;SDS011;65486;53.144;18.134;2023-12-28T10:09:38;11.50;;;5.90;;
76597;SDS011;65486;53.144;18.134;2023-12-28T10:12:05;12.80;;;5.70;;
76597;SDS011;65486;53.144;18.134;2023-12-28T10:14:33;10.70;;;5.00;;
76597;SDS011;65486;53.144;18.134;2023-12-28T10:17:02;12.50;;;5.90;;
76597;SDS011;65486;53.144;18.134;2023-12-28T10:19:32;12.00;;;5.70;;
76597;SDS011;65486;53.144;18.134;2023-12-28T10:22:00;10.20;;;5.00;;
76597;SDS011;65486;53.144;18.134;2023-12-28T10:24:27;10.00;;;3.90;;
76597;SDS011;65486;53.144;18.134;2023-12-28T10:26:54;11.60;;;5.10;;
76597;SDS011;65486;53.144;18.134;2023-12-28T10:29:26;9.80;;;4.70;;
76597;SDS011;65486;53.144;18.134;2023-12-28T10:31:53;10.40;;;5.10;;
76597;SDS011;65486;53.144;18.134;2023-12-28T10:34:22;11.20;;;5.40;;
76597;SDS011;65486;53.144;18.134;2023-12-28T10:36:51;12.50;;;5.30;;
76597;SDS011;65486;53.144;18.134;2023-12-28T10:39:19;10.80;;;5.30;;
76597;SDS011;65486;53.144;18.134;2023-12-28T10:41:48;10.30;;;5.10;;
76597;SDS011;65486;53.144;18.134;2023-12-28T10:44:19;10.20;;;4.80;;
76597;SDS011;65486;53.144;18.134;2023-12-28T10:46:48;8.90;;;3.50;;
76597;SDS011;65486;53.144;18.134;2023-12-28T10:49:28;7.70;;;3.90;;
76597;SDS011;65486;53.144;18.134;2023-12-28T10:52:02;10.70;;;4.00;;
76597;SDS011;65486;53.144;18.134;2023-12-28T10:57:14;7.90;;;3.80;;
76597;SDS011;65486;53.144;18.134;2023-12-28T11:00:10;9.80;;;3.40;;
76597;SDS011;65486;53.144;18.134;2023-12-28T11:02:47;9.10;;;4.40;;
76597;SDS011;65486;53.144;18.134;2023-12-28T11:05:20;9.30;;;4.00;;
76597;SDS011;65486;53.144;18.134;2023-12-28T11:07:49;7.50;;;3.20;;
76597;SDS011;65486;53.144;18.134;2023-12-28T11:10:21;9.80;;;4.30;;
76597;SDS011;65486;53.144;18.134;2023-12-28T11:12:53;8.10;;;3.80;;
76597;SDS011;65486;53.144;18.134;2023-12-28T11:15:20;8.80;;;3.80;;
76597;SDS011;65486;53.144;18.134;2023-12-28T11:17:50;8.20;;;4.40;;
76597;SDS011;65486;53.144;18.134;2023-12-28T11:20:20;8.40;;;4.00;;
76597;SDS011;65486;53.144;18.134;2023-12-28T11:22:48;10.20;;;3.90;;
76597;SDS011;65486;53.144;18.134;2023-12-28T11:25:17;7.80;;;3.10;;
76597;SDS011;65486;53.144;18.134;2023-12-28T11:27:46;6.90;;;3.20;;
76597;SDS011;65486;53.144;18.134;2023-12-28T11:30:13;8.80;;;3.80;;
76597;SDS011;65486;53.144;18.134;2023-12-28T11:32:42;8.00;;;3.50;;
76597;SDS011;65486;53.144;18.134;2023-12-28T11:35:13;8.70;;;3.50;;
76597;SDS011;65486;53.144;18.134;2023-12-28T11:37:42;6.60;;;3.10;;
76597;SDS011;65486;53.144;18.134;2023-12-28T11:40:18;9.80;;;4.60;;
76597;SDS011;65486;53.144;18.134;2023-12-28T11:42:53;9.20;;;3.40;;
76597;SDS011;65486;53.144;18.134;2023-12-28T11:45:24;6.90;;;2.90;;
76597;SDS011;65486;53.144;18.134;2023-12-28T11:48:01;7.50;;;2.90;;
76597;SDS011;65486;53.144;18.134;2023-12-28T11:50:34;7.40;;;3.90;;
76597;SDS011;65486;53.144;18.134;2023-12-28T11:53:02;7.10;;;2.80;;
76597;SDS011;65486;53.144;18.134;2023-12-28T11:55:30;6.00;;;2.80;;
76597;SDS011;65486;53.144;18.134;2023-12-28T11:57:57;7.40;;;3.30;;
76597;SDS011;65486;53.144;18.134;2023-12-28T12:00:24;7.90;;;3.50;;
76597;SDS011;65486;53.144;18.134;2023-12-28T12:02:52;6.40;;;2.90;;
76597;SDS011;65486;53.144;18.134;2023-12-28T12:05:19;8.30;;;3.20;;
76597;SDS011;65486;53.144;18.134;2023-12-28T12:07:48;8.40;;;3.10;;
76597;SDS011;65486;53.144;18.134;2023-12-28T12:10:16;6.30;;;3.00;;
76597;SDS011;65486;53.144;18.134;2023-12-28T12:12:43;6.90;;;3.20;;
76597;SDS011;65486;53.144;18.134;2023-12-28T12:15:12;8.10;;;3.40;;
76597;SDS011;65486;53.144;18.134;2023-12-28T12:17:40;6.80;;;2.70;;
76597;SDS011;65486;53.144;18.134;2023-12-28T12:20:08;6.50;;;2.90;;
76597;SDS011;65486;53.144;18.134;2023-12-28T12:22:36;8.40;;;3.00;;
76597;SDS011;65486;53.144;18.134;2023-12-28T12:25:06;7.30;;;3.60;;
76597;SDS011;65486;53.144;18.134;2023-12-28T12:27:34;7.20;;;2.60;;
76597;SDS011;65486;53.144;18.134;2023-12-28T12:30:04;7.40;;;3.40;;
76597;SDS011;65486;53.144;18.134;2023-12-28T12:32:32;7.80;;;3.10;;
76597;SDS011;65486;53.144;18.134;2023-12-28T12:35:04;6.20;;;2.70;;
76597;SDS011;65486;53.144;18.134;2023-12-28T12:37:31;8.30;;;2.70;;
76597;SDS011;65486;53.144;18.134;2023-12-28T12:39:58;7.70;;;3.00;;
76597;SDS011;65486;53.144;18.134;2023-12-28T12:42:26;6.50;;;3.10;;
76597;SDS011;65486;53.144;18.134;2023-12-28T12:44:54;6.90;;;3.00;;
76597;SDS011;65486;53.144;18.134;2023-12-28T12:47:22;7.40;;;3.20;;
76597;SDS011;65486;53.144;18.134;2023-12-28T12:49:55;6.10;;;2.90;;
76597;SDS011;65486;53.144;18.134;2023-12-28T12:52:25;7.90;;;3.60;;
76597;SDS011;65486;53.144;18.134;2023-12-28T12:54:57;5.50;;;2.40;;
76597;SDS011;65486;53.144;18.134;2023-12-28T12:57:29;8.20;;;3.20;;
76597;SDS011;65486;53.144;18.134;2023-12-28T12:59:57;7.20;;;2.70;;
76597;SDS011;65486;53.144;18.134;2023-12-28T13:02:28;8.20;;;3.10;;
76597;SDS011;65486;53.144;18.134;2023-12-28T13:04:56;5.60;;;2.60;;
76597;SDS011;65486;53.144;18.134;2023-12-28T13:07:26;6.40;;;3.30;;
76597;SDS011;65486;53.144;18.134;2023-12-28T13:09:53;6.90;;;2.30;;
76597;SDS011;65486;53.144;18.134;2023-12-28T13:12:20;6.10;;;2.50;;
76597;SDS011;65486;53.144;18.134;2023-12-28T13:14:47;6.20;;;2.80;;
76597;SDS011;65486;53.144;18.134;2023-12-28T13:17:14;6.80;;;2.90;;
76597;SDS011;65486;53.144;18.134;2023-12-28T13:19:42;4.70;;;2.10;;
76597;SDS011;65486;53.144;18.134;2023-12-28T13:22:12;7.60;;;3.10;;
76597;SDS011;65486;53.144;18.134;2023-12-28T13:24:39;7.00;;;2.80;;
76597;SDS011;65486;53.144;18.134;2023-12-28T13:27:26;8.30;;;3.10;;
76597;SDS011;65486;53.144;18.134;2023-12-28T13:29:54;7.60;;;3.30;;
76597;SDS011;65486;53.144;18.134;2023-12-28T13:32:22;6.80;;;3.20;;
76597;SDS011;65486;53.144;18.134;2023-12-28T13:34:50;5.70;;;2.80;;
76597;SDS011;65486;53.144;18.134;2023-12-28T13:37:19;8.10;;;3.00;;
76597;SDS011;65486;53.144;18.134;2023-12-28T13:39:47;7.60;;;3.20;;
76597;SDS011;65486;53.144;18.134;2023-12-28T13:42:14;7.90;;;3.40;;
76597;SDS011;65486;53.144;18.134;2023-12-28T13:44:41;6.20;;;3.10;;
76597;SDS011;65486;53.144;18.134;2023-12-28T13:47:10;8.20;;;4.00;;
76597;SDS011;65486;53.144;18.134;2023-12-28T13:49:37;6.40;;;2.80;;
76597;SDS011;65486;53.144;18.134;2023-12-28T13:52:05;5.20;;;2.60;;
76597;SDS011;65486;53.144;18.134;2023-12-28T13:54:33;6.60;;;3.40;;
76597;SDS011;65486;53.144;18.134;2023-12-28T13:57:02;5.20;;;2.60;;
76597;SDS011;65486;53.144;18.134;2023-12-28T13:59:33;7.30;;;3.30;;
76597;SDS011;65486;53.144;18.134;2023-12-28T14:02:00;4.20;;;1.90;;
76597;SDS011;65486;53.144;18.134;2023-12-28T14:04:28;7.50;;;3.40;;
76597;SDS011;65486;53.144;18.134;2023-12-28T14:06:56;4.70;;;1.70;;
76597;SDS011;65486;53.144;18.134;2023-12-28T14:09:23;4.60;;;2.10;;
76597;SDS011;65486;53.144;18.134;2023-12-28T14:11:50;6.20;;;2.50;;
76597;SDS011;65486;53.144;18.134;2023-12-28T14:14:17;5.90;;;2.70;;
76597;SDS011;65486;53.144;18.134;2023-12-28T14:16:45;7.70;;;3.40;;
76597;SDS011;65486;53.144;18.134;2023-12-28T14:19:12;9.00;;;3.20;;
76597;SDS011;65486;53.144;18.134;2023-12-28T14:21:40;8.10;;;2.80;;
76597;SDS011;65486;53.144;18.134;2023-12-28T14:24:08;7.30;;;3.10;;
76597;SDS011;65486;53.144;18.134;2023-12-28T14:26:40;7.80;;;2.90;;
76597;SDS011;65486;53.144;18.134;2023-12-28T14:29:11;8.20;;;3.30;;
76597;SDS011;65486;53.144;18.134;2023-12-28T14:31:38;9.00;;;3.00;;